Time;durP1;ratioP1;P1;durP2;ratioP2;P2;SDS_P1;SDS_P2;PMS_P1;PMS_P2;Temp;Humidity;BMP_temperature;BMP_pressure;BME280_temperature;BME280_humidity;BME280_pressure;Samples;Min_cycle;Max_cycle;Signal;HPM_P1;HPM_P2
2021/04/02 00:00:55;;;;;;;1.82;1.15;;;;;;;5.38;70.16;100702.20;1630151;85;25985;-74
2021/04/02 00:03:27;;;;;;;0.88;0.85;;;;;;;5.37;70.21;100691.22;1643958;85;27563;-74
2021/04/02 00:05:56;;;;;;;1.70;1.17;;;;;;;5.37;70.16;100689.90;1669002;85;25912;-74
2021/04/02 00:08:24;;;;;;;1.20;1.10;;;;;;;5.38;70.16;100688.92;1672980;85;26275;-74
2021/04/02 00:11:11;;;;;;;1.10;1.00;;;;;;;5.36;70.11;100690.90;1611677;85;25441;-74
2021/04/02 00:13:42;;;;;;;1.85;1.37;;;;;;;5.36;70.18;100691.74;1622311;85;25915;-74
2021/04/02 00:16:13;;;;;;;2.60;1.20;;;;;;;5.35;70.25;100691.38;1680929;84;26325;-76
2021/04/02 00:18:41;;;;;;;1.57;1.25;;;;;;;5.37;70.28;100689.41;1673024;85;34940;-74
2021/04/02 00:21:10;;;;;;;1.80;1.07;;;;;;;5.39;70.24;100695.41;1600777;85;25801;-74
2021/04/02 00:23:39;;;;;;;1.05;0.95;;;;;;;5.36;70.19;100694.88;1645746;85;25765;-74
2021/04/02 00:26:17;;;;;;;2.25;1.20;;;;;;;5.28;69.96;100703.59;1640647;85;25942;-73
2021/04/02 00:28:52;;;;;;;2.02;1.50;;;;;;;5.21;69.98;100709.17;1673164;85;28479;-75
2021/04/02 00:31:20;;;;;;;2.30;0.90;;;;;;;5.14;69.94;100704.11;1599649;85;25934;-74
2021/04/02 00:33:48;;;;;;;1.02;0.93;;;;;;;5.05;69.84;100710.31;1648234;85;25817;-73
2021/04/02 00:36:15;;;;;;;1.87;1.10;;;;;;;4.99;69.86;100704.27;1648879;85;25851;-73
2021/04/02 00:38:43;;;;;;;2.27;1.00;;;;;;;4.93;69.75;100704.87;1676829;85;26068;-74
2021/04/02 00:41:15;;;;;;;2.02;1.05;;;;;;;4.91;69.74;100711.30;1604552;85;28544;-75
2021/04/02 00:43:47;;;;;;;1.95;1.47;;;;;;;4.86;69.66;100705.11;1638171;85;25758;-73
2021/04/02 00:46:16;;;;;;;1.37;1.20;;;;;;;4.83;69.66;100709.89;1636563;85;25858;-74
2021/04/02 00:48:44;;;;;;;6.47;1.05;;;;;;;4.77;69.60;100702.52;1656615;85;26472;-73
2021/04/02 00:51:28;;;;;;;2.35;1.17;;;;;;;4.73;69.66;100697.16;1637610;85;25867;-74
2021/04/02 00:53:57;;;;;;;3.87;1.57;;;;;;;4.67;69.76;100703.88;1617098;85;28460;-75
2021/04/02 00:56:24;;;;;;;2.40;1.52;;;;;;;4.62;69.82;100706.12;1637425;85;26414;-74
2021/04/02 00:58:52;;;;;;;2.75;1.20;;;;;;;4.60;69.85;100710.25;1658830;85;25767;-73
2021/04/02 01:01:19;;;;;;;3.02;1.50;;;;;;;4.57;69.82;100717.68;1619624;84;26004;-74
2021/04/02 01:03:48;;;;;;;3.67;1.67;;;;;;;4.54;69.89;100717.95;1646398;84;26357;-73
2021/04/02 01:06:22;;;;;;;2.10;1.50;;;;;;;4.48;70.02;100716.73;1645423;84;27348;-74
2021/04/02 01:08:49;;;;;;;3.40;1.50;;;;;;;4.41;70.24;100723.59;1687351;84;25915;-73
2021/04/02 01:11:20;;;;;;;2.83;1.35;;;;;;;4.37;70.10;100724.02;1622243;84;25853;-74
2021/04/02 01:13:52;;;;;;;1.27;1.07;;;;;;;4.35;70.25;100725.49;1645176;84;26272;-74
2021/04/02 01:16:27;;;;;;;1.85;0.90;;;;;;;4.33;70.28;100730.10;1666415;84;26325;-73
2021/04/02 01:19:29;;;;;;;2.90;1.25;;;;;;;4.28;70.96;100738.97;1687310;84;28895;-75
2021/04/02 01:22:04;;;;;;;0.98;0.88;;;;;;;4.25;70.84;100746.38;1701487;84;25807;-75
2021/04/02 01:25:10;;;;;;;1.52;0.90;;;;;;;4.16;70.87;100750.72;1646371;84;25988;-74
2021/04/02 01:28:02;;;;;;;3.75;1.10;;;;;;;4.12;71.15;100751.14;1665340;84;25824;-74
2021/04/02 01:30:31;;;;;;;1.82;1.35;;;;;;;4.05;71.30;100749.55;1691037;84;26119;-74
2021/04/02 01:33:00;;;;;;;1.70;1.12;;;;;;;4.01;71.14;100749.48;1621688;84;27081;-73
2021/04/02 01:35:35;;;;;;;2.27;1.37;;;;;;;3.99;71.18;100750.59;1664544;84;26114;-73
2021/04/02 01:38:13;;;;;;;1.87;1.00;;;;;;;3.94;71.52;100741.74;1668267;84;25461;-73
2021/04/02 01:40:46;;;;;;;2.20;1.00;;;;;;;3.89;71.55;100747.97;1690524;84;25743;-74
2021/04/02 01:43:38;;;;;;;2.77;1.45;;;;;;;3.89;71.66;100758.57;1638990;85;25905;-74
2021/04/02 01:46:08;;;;;;;2.08;1.02;;;;;;;3.85;71.42;100761.97;1659245;84;33126;-74
2021/04/02 01:48:38;;;;;;;3.02;1.32;;;;;;;3.81;72.01;100766.36;1657855;84;25796;-74
2021/04/02 01:51:07;;;;;;;3.52;1.12;;;;;;;3.72;71.96;100772.00;1685800;84;26328;-74
2021/04/02 01:53:40;;;;;;;1.87;1.12;;;;;;;3.68;72.34;100775.06;1614577;84;25799;-74
2021/04/02 01:56:08;;;;;;;1.70;1.25;;;;;;;3.63;72.91;100783.94;1662481;84;25797;-74
2021/04/02 01:58:40;;;;;;;2.17;1.15;;;;;;;3.57;72.77;100787.95;1618239;85;27545;-74
2021/04/02 02:01:10;;;;;;;1.60;1.40;;;;;;;3.52;73.10;100794.64;1652902;85;25657;-74
2021/04/02 02:03:41;;;;;;;3.00;1.27;;;;;;;3.46;73.79;100801.81;1640879;84;25846;-74
2021/04/02 02:06:11;;;;;;;2.35;1.45;;;;;;;3.43;73.54;100802.08;1658040;84;25823;-75
2021/04/02 02:08:44;;;;;;;5.05;1.52;;;;;;;3.40;73.41;100804.50;1649795;84;26582;-75
2021/04/02 02:11:17;;;;;;;4.17;1.70;;;;;;;3.39;73.61;100807.30;1685755;84;28431;-74
2021/04/02 02:14:03;;;;;;;3.02;1.40;;;;;;;3.37;73.72;100804.80;1685647;84;26378;-74
2021/04/02 02:16:32;;;;;;;3.42;1.50;;;;;;;3.37;73.68;100807.92;1662017;85;25857;-73
2021/04/02 02:19:05;;;;;;;1.52;1.40;;;;;;;3.29;74.39;100805.97;1640197;84;25832;-75
2021/04/02 02:21:33;;;;;;;2.10;1.35;;;;;;;3.27;74.61;100804.42;1648355;84;26129;-74
2021/04/02 02:24:03;;;;;;;1.53;1.43;;;;;;;3.22;74.59;100807.47;1682751;84;28537;-74
2021/04/02 02:26:31;;;;;;;2.58;1.52;;;;;;;3.19;74.39;100812.20;1614231;84;26132;-73
2021/04/02 02:28:59;;;;;;;2.75;1.90;;;;;;;3.17;74.82;100817.61;1653203;85;25871;-74
2021/04/02 02:31:28;;;;;;;3.55;2.20;;;;;;;3.18;74.55;100822.42;1635592;84;26364;-74
2021/04/02 02:33:56;;;;;;;2.52;1.85;;;;;;;3.14;75.67;100824.00;1685702;84;25741;-74
2021/04/02 02:36:35;;;;;;;2.08;1.72;;;;;;;3.20;75.21;100820.48;1794323;79;25817;-73
2021/04/02 02:39:09;;;;;;;2.87;2.08;;;;;;;3.14;75.55;100826.64;1730200;81;25722;-74
2021/04/02 02:41:38;;;;;;;5.70;2.52;;;;;;;3.16;75.54;100824.37;1759211;80;26739;-74
2021/04/02 02:44:07;;;;;;;2.40;1.98;;;;;;;3.16;75.99;100817.75;1670828;83;25729;-74
2021/04/02 02:46:35;;;;;;;3.92;2.15;;;;;;;3.11;75.74;100828.25;1672732;83;26563;-74
2021/04/02 02:49:14;;;;;;;4.47;2.92;;;;;;;3.10;75.75;100829.21;1663668;84;25819;-74
2021/04/02 02:51:46;;;;;;;2.80;2.50;;;;;;;3.08;76.09;100828.98;1689515;83;26082;-73
2021/04/02 02:54:18;;;;;;;5.42;3.42;;;;;;;3.04;76.24;100830.23;1656987;83;28563;-73
2021/04/02 02:56:50;;;;;;;3.55;2.83;;;;;;;3.02;76.16;100829.05;1629469;83;26445;-74
2021/04/02 02:59:24;;;;;;;3.15;2.70;;;;;;;3.01;75.73;100821.25;1665926;84;25858;-73
2021/04/02 03:01:54;;;;;;;4.22;3.12;;;;;;;3.01;75.95;100823.90;1687074;83;25838;-73
2021/04/02 03:04:25;;;;;;;5.97;3.30;;;;;;;3.01;75.63;100822.09;1633579;84;25852;-76
2021/04/02 03:06:54;;;;;;;4.53;3.17;;;;;;;3.02;76.02;100823.75;1684879;84;27613;-77
2021/04/02 03:09:24;;;;;;;3.60;2.85;;;;;;;3.01;75.84;100827.39;1656594;82;25968;-76
2021/04/02 03:11:52;;;;;;;4.10;2.95;;;;;;;3.00;76.02;100816.91;1698264;83;25806;-76
2021/04/02 03:14:24;;;;;;;4.80;3.72;;;;;;;2.97;76.10;100816.69;1667028;84;26333;-76
2021/04/02 03:16:54;;;;;;;3.75;3.45;;;;;;;2.93;76.01;100817.93;1665037;83;25812;-77
2021/04/02 03:19:24;;;;;;;4.75;3.75;;;;;;;2.90;76.54;100829.27;1666391;84;27462;-76
2021/04/02 03:21:57;;;;;;;6.03;3.30;;;;;;;2.86;76.62;100815.48;1692957;83;26333;-77
2021/04/02 03:24:27;;;;;;;6.15;4.33;;;;;;;2.83;76.60;100812.24;1691530;83;25933;-76
2021/04/02 03:26:58;;;;;;;4.67;3.72;;;;;;;2.80;76.34;100809.38;1673131;83;26123;-76
2021/04/02 03:29:27;;;;;;;8.10;4.55;;;;;;;2.83;76.19;100814.41;1663059;84;25855;-76
2021/04/02 03:32:00;;;;;;;4.33;3.70;;;;;;;2.87;76.09;100814.50;1689589;84;28551;-76
2021/04/02 03:34:30;;;;;;;4.75;3.72;;;;;;;2.88;75.99;100816.19;1691668;83;26498;-73
2021/04/02 03:37:00;;;;;;;6.00;3.80;;;;;;;2.89;75.92;100803.30;1662768;84;25900;-73
2021/04/02 03:39:30;;;;;;;5.60;4.28;;;;;;;2.92;75.83;100810.98;1660140;84;35258;-74
2021/04/02 03:42:01;;;;;;;6.80;4.22;;;;;;;2.92;75.72;100807.48;1665991;84;26513;-73
2021/04/02 03:44:33;;;;;;;7.70;3.58;;;;;;;2.91;75.66;100803.16;1644521;84;28564;-75
2021/04/02 03:47:05;;;;;;;4.37;3.85;;;;;;;2.97;75.77;100800.00;1670468;84;32775;-74
2021/04/02 03:49:36;;;;;;;4.10;3.60;;;;;;;2.99;75.55;100789.61;1639480;83;26020;-73
2021/04/02 03:52:08;;;;;;;5.35;3.62;;;;;;;3.04;75.53;100790.05;1675433;84;26466;-74
2021/04/02 03:54:38;;;;;;;5.78;3.60;;;;;;;3.09;75.50;100793.15;1675298;84;26739;-74
2021/04/02 03:57:09;;;;;;;4.40;3.52;;;;;;;3.12;75.27;100786.76;1665841;83;27624;-73
2021/04/02 03:59:40;;;;;;;6.15;3.80;;;;;;;3.16;75.11;100788.64;1661198;83;34994;-74
2021/04/02 04:02:09;;;;;;;5.08;3.70;;;;;;;3.18;74.93;100791.98;1666496;84;25879;-74
2021/04/02 04:04:38;;;;;;;4.47;3.92;;;;;;;3.21;74.84;100789.08;1653742;83;25803;-74
2021/04/02 04:07:08;;;;;;;7.05;3.98;;;;;;;3.25;74.62;100781.22;1666333;83;26416;-74
2021/04/02 04:09:39;;;;;;;;;;;;;;;3.28;74.57;100787.06;1648886;83;28301;-74
2021/04/02 04:12:13;;;;;;;6.05;3.67;;;;;;;3.28;74.25;100787.06;1698111;83;25761;-74
2021/04/02 04:14:48;;;;;;;5.58;3.77;;;;;;;3.27;74.13;100785.89;1671201;83;25847;-74
2021/04/02 04:17:19;;;;;;;4.53;3.72;;;;;;;3.30;73.93;100792.22;1668554;83;25470;-75
2021/04/02 04:19:50;;;;;;;5.58;3.80;;;;;;;3.30;73.65;100787.77;1665726;84;25872;-74
2021/04/02 04:22:23;;;;;;;7.17;3.60;;;;;;;3.28;73.52;100790.19;1681038;82;27563;-74
2021/04/02 04:24:53;;;;;;;5.87;3.62;;;;;;;3.25;73.51;100792.62;1669702;83;26521;-75
2021/04/02 04:27:23;;;;;;;7.08;3.92;;;;;;;3.24;73.40;100792.28;1663844;84;26372;-74
2021/04/02 04:29:51;;;;;;;4.47;3.20;;;;;;;3.22;73.26;100784.97;1675551;84;25892;-75
2021/04/02 04:32:21;;;;;;;4.37;3.77;;;;;;;3.17;73.25;100785.00;1641246;83;26075;-74
2021/04/02 04:34:49;;;;;;;4.67;3.70;;;;;;;3.18;73.49;100782.24;1657459;84;28687;-75
2021/04/02 04:37:23;;;;;;;9.50;3.90;;;;;;;3.21;73.52;100779.30;1679561;81;25802;-75
2021/04/02 04:39:53;;;;;;;3.98;3.22;;;;;;;3.21;73.37;100770.55;1659345;83;26517;-75
2021/04/02 04:42:23;;;;;;;3.83;3.22;;;;;;;3.19;73.35;100771.98;1664876;83;35030;-74
2021/04/02 04:44:54;;;;;;;5.33;3.77;;;;;;;3.18;73.51;100770.33;1658820;84;26088;-75
2021/04/02 04:47:21;;;;;;;;;;;;;;;3.18;73.65;100779.59;1658584;84;28130;-74
2021/04/02 04:49:48;;;;;;;4.70;3.72;;;;;;;3.16;73.79;100780.22;1689567;83;25970;-74
2021/04/02 04:52:19;;;;;;;5.15;3.60;;;;;;;3.13;73.82;100789.26;1655106;83;25886;-74
2021/04/02 04:54:50;;;;;;;4.90;3.87;;;;;;;3.12;74.08;100798.67;1685984;82;25867;-74
2021/04/02 04:57:20;;;;;;;8.60;3.98;;;;;;;3.04;74.06;100804.61;1692816;83;25820;-74
2021/04/02 04:59:50;;;;;;;5.85;4.03;;;;;;;2.98;74.34;100813.56;1690065;83;27551;-74
2021/04/02 05:02:19;;;;;;;;;;;;;;;2.90;74.63;100803.66;1663330;84;25897;-74
2021/04/02 05:04:48;;;;;;;6.40;3.87;;;;;;;2.87;74.93;100805.72;1689894;83;25898;-74
2021/04/02 05:07:18;;;;;;;9.13;4.35;;;;;;;2.86;75.28;100818.61;1694442;81;26063;-75
2021/04/02 05:09:48;;;;;;;4.70;3.85;;;;;;;2.77;75.61;100821.56;1653657;83;26252;-75
2021/04/02 05:12:17;;;;;;;5.90;4.80;;;;;;;2.73;76.27;100824.11;1664236;83;27561;-74
2021/04/02 05:14:46;;;;;;;4.20;3.77;;;;;;;2.67;76.61;100825.97;1693536;81;25846;-74
2021/04/02 05:17:15;;;;;;;5.85;4.33;;;;;;;2.64;76.55;100824.89;1666753;83;25885;-74
2021/04/02 05:19:44;;;;;;;7.95;4.78;;;;;;;2.62;76.67;100829.48;1642496;84;25797;-74
2021/04/02 05:22:11;;;;;;;7.05;5.53;;;;;;;2.64;76.83;100826.69;1668849;83;26432;-74
2021/04/02 05:24:39;;;;;;;6.33;5.00;;;;;;;2.67;76.92;100829.09;1681393;83;28562;-74
2021/04/02 05:27:09;;;;;;;6.55;5.72;;;;;;;2.67;76.99;100832.58;1663006;83;26441;-74
2021/04/02 05:29:36;;;;;;;7.47;5.62;;;;;;;2.69;77.24;100838.58;1657617;84;25865;-75
2021/04/02 05:32:06;;;;;;;9.05;6.55;;;;;;;2.69;77.66;100840.37;1669083;84;25941;-74
2021/04/02 05:34:34;;;;;;;10.25;6.90;;;;;;;2.68;77.39;100847.46;1682995;84;26260;-74
2021/04/02 05:37:03;;;;;;;12.30;7.20;;;;;;;2.70;77.46;100841.55;1645020;84;27386;-74
2021/04/02 05:39:31;;;;;;;8.58;6.28;;;;;;;2.74;77.76;100842.97;1679077;84;25811;-75
2021/04/02 05:42:07;;;;;;;9.53;7.10;;;;;;;2.77;77.99;100830.81;1665921;84;26115;-75
2021/04/02 05:44:37;;;;;;;11.53;7.05;;;;;;;2.82;78.00;100837.85;1664188;83;25446;-73
2021/04/02 05:47:09;;;;;;;10.80;6.42;;;;;;;2.86;77.70;100826.06;1668309;84;25942;-74
2021/04/02 05:49:38;;;;;;;9.68;5.97;;;;;;;2.90;78.08;100827.95;1672434;83;27563;-74
2021/04/02 05:52:09;;;;;;;8.38;6.33;;;;;;;2.92;78.27;100828.66;1660184;84;25843;-74
2021/04/02 05:54:38;;;;;;;8.80;6.08;;;;;;;2.93;77.85;100843.06;1653614;84;25873;-74
2021/04/02 05:57:08;;;;;;;7.40;5.67;;;;;;;2.95;77.66;100827.08;1666666;83;27181;-75
2021/04/02 05:59:38;;;;;;;10.08;6.95;;;;;;;2.97;77.76;100830.43;1651396;83;25611;-74
2021/04/02 06:02:06;;;;;;;7.65;6.25;;;;;;;2.99;77.75;100822.69;1673593;83;28443;-75
2021/04/02 06:04:35;;;;;;;7.90;6.45;;;;;;;3.00;77.69;100820.89;1699048;83;26408;-74
2021/04/02 06:07:03;;;;;;;7.20;6.00;;;;;;;3.06;77.54;100825.64;1675853;83;25918;-75
2021/04/02 06:09:30;;;;;;;9.40;6.28;;;;;;;3.14;77.42;100833.27;1677240;83;26019;-75
2021/04/02 06:11:58;;;;;;;9.48;6.10;;;;;;;3.21;77.10;100825.62;1664296;83;25804;-74
2021/04/02 06:14:29;;;;;;;8.20;5.72;;;;;;;3.26;77.02;100823.91;1677724;83;28462;-74
2021/04/02 06:16:56;;;;;;;8.13;5.62;;;;;;;3.34;76.89;100820.94;1676184;83;26035;-74
2021/04/02 06:19:24;;;;;;;7.37;5.62;;;;;;;3.40;76.42;100820.39;1675487;83;25863;-74
2021/04/02 06:21:57;;;;;;;6.72;5.37;;;;;;;3.48;76.40;100819.73;1666029;84;25871;-75
2021/04/02 06:24:47;;;;;;;9.13;5.12;;;;;;;3.53;75.97;100819.66;1691573;84;26099;-74
2021/04/02 06:27:15;;;;;;;7.78;5.42;;;;;;;3.59;75.75;100824.91;1666384;84;32623;-74
2021/04/02 06:30:01;;;;;;;6.17;4.87;;;;;;;3.63;75.41;100823.19;1661833;84;25800;-74
2021/04/02 06:32:34;;;;;;;6.60;4.50;;;;;;;3.70;75.40;100828.77;1689676;83;25363;-74
2021/04/02 06:35:10;;;;;;;7.00;4.60;;;;;;;3.85;75.84;100832.66;1667493;83;25868;-73
2021/04/02 06:37:38;;;;;;;5.12;4.35;;;;;;;4.00;75.09;100833.13;1674056;83;26201;-74
2021/04/02 06:40:11;;;;;;;6.78;3.83;;;;;;;4.09;74.68;100832.27;1661451;83;28306;-74
2021/04/02 06:42:39;;;;;;;4.90;3.55;;;;;;;4.14;74.80;100834.86;1703167;83;25914;-73
2021/04/02 06:45:08;;;;;;;5.50;3.90;;;;;;;4.25;74.64;100830.75;1642732;83;26237;-74
2021/04/02 06:47:38;;;;;;;5.28;3.20;;;;;;;4.37;74.67;100834.91;1684632;81;26463;-73
2021/04/02 06:50:22;;;;;;;4.30;3.42;;;;;;;4.48;73.71;100837.89;1662455;85;25900;-74
2021/04/02 06:52:53;;;;;;;4.05;3.10;;;;;;;4.51;72.94;100837.63;1661965;83;26603;-74
2021/04/02 06:55:23;;;;;;;5.35;3.30;;;;;;;4.50;72.59;100836.78;1631524;83;25832;-74
2021/04/02 06:57:54;;;;;;;4.13;3.53;;;;;;;4.54;72.39;100835.52;1663299;84;25799;-73
2021/04/02 07:00:29;;;;;;;5.03;3.52;;;;;;;4.57;72.37;100831.27;1661873;84;25965;-74
2021/04/02 07:02:57;;;;;;;4.03;3.47;;;;;;;4.64;72.55;100835.52;1657532;83;25877;-73
2021/04/02 07:05:26;;;;;;;4.78;3.75;;;;;;;4.76;72.78;100838.81;1684834;83;27617;-73
2021/04/02 07:08:08;;;;;;;3.60;2.95;;;;;;;4.84;72.33;100837.12;1660934;84;25882;-73
2021/04/02 07:10:38;;;;;;;5.08;3.65;;;;;;;4.90;71.37;100841.84;1699128;81;25839;-77
2021/04/02 07:13:06;;;;;;;4.73;3.80;;;;;;;4.97;71.67;100836.31;1651237;83;25826;-77
2021/04/02 07:15:37;;;;;;;5.60;3.60;;;;;;;5.03;71.54;100834.88;1689871;81;25846;-78
2021/04/02 07:18:08;;;;;;;4.45;3.25;;;;;;;5.09;71.06;100830.34;1697207;81;28482;-77
2021/04/02 07:20:36;;;;;;;3.67;3.25;;;;;;;5.13;70.75;100831.20;1650079;81;25799;-75
2021/04/02 07:23:05;;;;;;;6.40;3.55;;;;;;;5.18;71.21;100834.27;1652724;84;25876;-75
2021/04/02 07:25:33;;;;;;;4.05;3.67;;;;;;;5.25;70.11;100831.86;1662228;81;25891;-75
2021/04/02 07:28:04;;;;;;;8.68;3.35;;;;;;;5.33;70.30;100839.44;1661040;83;25825;-75
2021/04/02 07:30:35;;;;;;;3.22;2.92;;;;;;;5.42;70.01;100837.72;1667761;81;26122;-75
2021/04/02 07:33:12;;;;;;;3.92;3.35;;;;;;;5.53;69.76;100843.32;1656392;83;26108;-75
2021/04/02 07:35:41;;;;;;;5.03;3.60;;;;;;;5.62;70.10;100837.13;1692292;81;26543;-76
2021/04/02 07:38:16;;;;;;;6.10;3.65;;;;;;;5.71;69.16;100842.88;1685328;84;25821;-76
2021/04/02 07:40:49;;;;;;;4.65;3.08;;;;;;;5.78;69.30;100843.93;1654954;85;26555;-75
2021/04/02 07:43:19;;;;;;;7.40;3.90;;;;;;;5.82;69.38;100843.97;1672847;84;27545;-76
2021/04/02 07:45:52;;;;;;;4.90;3.58;;;;;;;5.90;69.76;100850.75;1649926;84;26062;-75
2021/04/02 07:48:26;;;;;;;3.70;2.95;;;;;;;5.92;68.66;100847.45;1659257;84;26192;-75
2021/04/02 07:50:59;;;;;;;4.35;3.20;;;;;;;5.95;67.84;100850.63;1650043;84;25851;-75
2021/04/02 07:53:34;;;;;;;5.33;3.25;;;;;;;6.00;68.73;100846.20;1653874;84;26400;-75
2021/04/02 07:56:17;;;;;;;3.70;2.60;;;;;;;6.11;68.25;100841.50;1673972;84;27294;-74
2021/04/02 07:58:53;;;;;;;4.05;2.95;;;;;;;6.17;66.99;100842.70;1656978;84;25719;-75
2021/04/02 08:01:25;;;;;;;2.52;2.33;;;;;;;6.28;67.59;100839.81;1681046;83;26049;-75
2021/04/02 08:03:53;;;;;;;3.87;3.20;;;;;;;6.36;66.49;100840.36;1650342;84;25859;-75
2021/04/02 08:09:14;;;;;;;3.65;3.12;;;;;;;6.48;66.08;100834.64;1841749;77;25739;-75
2021/04/02 08:11:46;;;;;;;4.75;2.45;;;;;;;6.51;65.88;100837.00;1764537;79;25893;-75
2021/04/02 08:14:32;;;;;;;2.40;2.20;;;;;;;6.60;66.30;100828.59;1754722;80;28415;-75
2021/04/02 08:17:00;;;;;;;3.40;2.40;;;;;;;6.72;64.59;100830.83;1720195;81;26404;-75
2021/04/02 08:19:30;;;;;;;3.92;2.47;;;;;;;6.76;65.01;100828.19;1662743;82;25809;-75
2021/04/02 08:22:08;;;;;;;2.60;2.08;;;;;;;6.84;63.74;100828.75;1692213;83;26486;-75
2021/04/02 08:24:40;;;;;;;3.25;1.90;;;;;;;6.87;64.16;100827.94;1710976;82;26118;-75
2021/04/02 08:27:09;;;;;;;2.30;1.98;;;;;;;6.91;63.45;100824.45;1674638;81;28445;-75
2021/04/02 08:29:39;;;;;;;4.05;2.20;;;;;;;6.95;62.97;100825.31;1712167;82;26484;-75
2021/04/02 08:32:15;;;;;;;2.50;2.15;;;;;;;6.97;64.06;100816.66;1725530;80;26439;-75
2021/04/02 08:34:44;;;;;;;3.12;2.00;;;;;;;7.07;64.29;100819.23;1717272;81;26132;-75
2021/04/02 08:37:14;;;;;;;2.27;1.72;;;;;;;7.10;62.48;100806.91;1681947;81;26385;-76
2021/04/02 08:39:42;;;;;;;3.17;2.20;;;;;;;7.13;62.30;100808.42;1696932;81;28513;-75
2021/04/02 08:42:12;;;;;;;2.30;1.80;;;;;;;7.18;62.60;100806.97;1686749;82;26542;-75
2021/04/02 08:44:46;;;;;;;2.12;1.92;;;;;;;7.25;62.48;100806.64;1665905;83;26569;-75
2021/04/02 08:47:16;;;;;;;5.45;2.70;;;;;;;7.34;62.72;100807.51;1698173;81;25332;-75
2021/04/02 08:49:53;;;;;;;2.90;1.80;;;;;;;7.40;63.15;100813.55;1662857;82;25793;-75
2021/04/02 08:52:28;;;;;;;3.12;2.00;;;;;;;7.48;61.24;100814.42;1741927;81;28455;-75
2021/04/02 08:55:00;;;;;;;2.87;1.82;;;;;;;7.49;61.32;100813.41;1730698;82;25863;-75
2021/04/02 08:57:30;;;;;;;1.67;1.30;;;;;;;7.53;60.84;100807.23;1686937;82;25788;-75
2021/04/02 09:00:01;;;;;;;2.02;1.60;;;;;;;7.57;59.45;100805.95;1682663;82;25853;-76
2021/04/02 09:02:30;;;;;;;1.62;1.50;;;;;;;7.65;60.54;100800.14;1634246;83;25404;-75
2021/04/02 09:05:00;;;;;;;2.22;1.57;;;;;;;7.75;59.31;100804.82;1732656;82;27550;-75
2021/04/02 09:07:28;;;;;;;1.82;1.40;;;;;;;7.74;58.67;100799.66;1761493;80;25505;-76
2021/04/02 09:09:55;;;;;;;3.37;1.70;;;;;;;7.72;59.15;100797.13;1682709;82;25900;-76
2021/04/02 09:12:22;;;;;;;4.40;2.15;;;;;;;7.77;60.42;100797.98;1705790;82;26574;-75
2021/04/02 09:14:52;;;;;;;2.30;2.02;;;;;;;7.84;59.92;100801.67;1744627;81;25835;-75
2021/04/02 09:17:24;;;;;;;2.07;1.77;;;;;;;7.82;59.72;100791.66;1661235;82;27683;-75
2021/04/02 09:19:55;;;;;;;3.10;2.35;;;;;;;7.85;58.69;100792.66;1674017;83;26110;-75
2021/04/02 09:22:24;;;;;;;3.20;2.08;;;;;;;7.87;58.90;100789.31;1726481;81;25753;-75
2021/04/02 09:24:52;;;;;;;3.72;1.72;;;;;;;7.94;59.01;100786.34;1706796;83;25849;-75
2021/04/02 09:30:01;;;;;;;2.50;2.08;;;;;;;8.16;57.46;100794.19;1830936;77;26230;-75
2021/04/02 09:32:29;;;;;;;2.12;1.75;;;;;;;8.11;57.52;100792.02;1763243;80;25945;-75
2021/04/02 09:34:58;;;;;;;3.27;2.67;;;;;;;8.11;56.08;100784.51;1776651;79;29086;-75
2021/04/02 09:37:27;;;;;;;3.20;2.40;;;;;;;8.13;56.13;100795.35;1714361;82;26258;-75
2021/04/02 09:40:03;;;;;;;4.22;3.00;;;;;;;8.05;54.64;100795.36;1716940;81;25951;-75
2021/04/02 09:42:35;;;;;;;5.25;2.75;;;;;;;8.06;57.27;100782.34;1691332;81;25951;-75
2021/04/02 09:45:09;;;;;;;4.30;2.37;;;;;;;8.13;56.76;100783.34;1734925;81;26522;-76
2021/04/02 09:47:44;;;;;;;3.00;2.00;;;;;;;8.19;56.11;100774.67;1704693;81;27619;-75
2021/04/02 09:50:14;;;;;;;3.27;2.17;;;;;;;8.27;55.61;100769.39;1704860;81;25934;-75
2021/04/02 09:52:44;;;;;;;4.75;1.92;;;;;;;8.38;55.99;100769.55;1699598;82;26586;-75
2021/04/02 09:55:13;;;;;;;1.98;1.57;;;;;;;8.39;53.96;100764.03;1744013;81;25856;-75
2021/04/02 09:57:41;;;;;;;4.53;1.52;;;;;;;8.40;55.27;100760.86;1721071;81;26478;-75
2021/04/02 10:00:12;;;;;;;2.08;1.90;;;;;;;8.46;54.42;100761.02;1716324;81;28431;-75
2021/04/02 10:02:39;;;;;;;4.22;2.15;;;;;;;8.43;53.35;100763.18;1721822;81;25870;-75
2021/04/02 10:05:09;;;;;;;3.00;2.08;;;;;;;8.42;53.62;100753.03;1716120;81;25829;-76
2021/04/02 10:07:36;;;;;;;1.98;1.62;;;;;;;8.44;54.31;100748.84;1693835;81;26137;-75
2021/04/02 10:10:06;;;;;;;1.98;1.80;;;;;;;8.54;53.90;100754.83;1717187;81;25837;-75
2021/04/02 10:12:33;;;;;;;2.50;1.82;;;;;;;8.52;51.98;100741.66;1747526;81;27091;-75
2021/04/02 10:15:01;;;;;;;2.75;1.77;;;;;;;8.48;50.31;100759.02;1742262;81;25724;-75
2021/04/02 10:17:29;;;;;;;3.50;1.90;;;;;;;8.57;53.01;100740.31;1695193;81;25828;-75
2021/04/02 10:19:57;;;;;;;2.33;1.75;;;;;;;8.64;51.81;100744.78;1715810;81;25846;-75
2021/04/02 10:22:27;;;;;;;3.35;2.67;;;;;;;8.69;52.01;100734.43;1715800;81;26049;-75
2021/04/02 10:24:54;;;;;;;3.87;2.08;;;;;;;8.76;54.75;100741.26;1723815;81;27740;-75
2021/04/02 10:27:24;;;;;;;3.20;1.90;;;;;;;8.83;50.60;100730.23;1700429;81;25865;-75
2021/04/02 10:29:52;;;;;;;3.72;2.12;;;;;;;8.81;51.71;100732.23;1689336;81;26096;-75
2021/04/02 10:32:19;;;;;;;3.52;1.70;;;;;;;8.86;51.11;100729.86;1687587;81;25770;-75
2021/04/02 10:34:47;;;;;;;2.30;2.10;;;;;;;8.93;50.08;100726.84;1737030;81;25796;-75
2021/04/02 10:37:15;;;;;;;3.22;2.27;;;;;;;8.95;51.13;100715.48;1688857;81;27536;-75
2021/04/02 10:39:43;;;;;;;3.05;2.15;;;;;;;9.01;50.49;100718.29;1698439;81;26480;-76
2021/04/02 10:42:10;;;;;;;2.85;2.37;;;;;;;9.07;51.83;100719.42;1708390;81;25928;-76
2021/04/02 10:44:38;;;;;;;3.85;2.70;;;;;;;9.09;51.05;100719.58;1741274;81;25838;-76
2021/04/02 10:47:06;;;;;;;5.92;2.70;;;;;;;9.12;52.70;100717.07;1700736;81;25805;-76
2021/04/02 10:49:34;;;;;;;4.03;2.87;;;;;;;9.11;51.87;100702.88;1698682;81;27531;-76
2021/04/02 10:52:02;;;;;;;4.80;3.12;;;;;;;9.12;52.97;100705.89;1693399;81;26149;-76
2021/04/02 10:54:30;;;;;;;3.65;2.58;;;;;;;9.14;53.09;100709.21;1730116;81;25795;-75
2021/04/02 10:56:57;;;;;;;2.75;2.12;;;;;;;9.18;53.43;100708.34;1686293;83;26319;-75
2021/04/02 10:59:24;;;;;;;2.72;2.30;;;;;;;9.28;51.47;100699.62;1682045;81;25740;-75
2021/04/02 11:01:52;;;;;;;2.72;2.37;;;;;;;9.38;52.53;100699.39;1712668;81;28121;-76
2021/04/02 11:04:19;;;;;;;2.50;2.17;;;;;;;9.43;50.80;100695.70;1698330;81;26358;-76
2021/04/02 11:06:46;;;;;;;3.10;2.80;;;;;;;9.46;51.75;100700.67;1697527;81;25901;-75
2021/04/02 11:09:15;;;;;;;3.05;2.45;;;;;;;9.52;52.14;100700.80;1671723;81;26148;-75
2021/04/02 11:11:42;;;;;;;2.92;2.42;;;;;;;9.57;50.73;100694.42;1712424;81;26453;-76
2021/04/02 11:14:09;;;;;;;1.87;1.70;;;;;;;9.54;50.35;100694.77;1696786;81;27557;-75
2021/04/02 11:16:37;;;;;;;1.90;1.37;;;;;;;9.54;48.19;100697.44;1697867;82;26108;-76
2021/04/02 11:19:04;;;;;;;2.45;1.20;;;;;;;9.53;48.26;100693.11;1700760;81;26472;-75
2021/04/02 11:21:32;;;;;;;2.45;1.42;;;;;;;9.58;45.08;100684.03;1690457;81;25805;-75
2021/04/02 11:23:59;;;;;;;2.92;2.30;;;;;;;9.65;47.93;100691.68;1735565;81;26431;-75
2021/04/02 11:26:26;;;;;;;3.22;2.70;;;;;;;9.73;46.78;100685.45;1672797;83;27991;-76
2021/04/02 11:28:54;;;;;;;3.33;3.02;;;;;;;9.78;48.67;100685.73;1701341;83;25426;-75
2021/04/02 11:31:22;;;;;;;2.87;2.50;;;;;;;9.86;48.29;100680.30;1691473;81;26420;-75
2021/04/02 11:33:49;;;;;;;2.98;2.50;;;;;;;9.94;50.03;100681.59;1743207;81;25802;-75
2021/04/02 11:36:17;;;;;;;2.87;2.58;;;;;;;10.08;50.53;100682.96;1668658;81;25350;-75
2021/04/02 11:38:45;;;;;;;4.87;2.98;;;;;;;10.13;48.89;100685.63;1701947;81;27587;-76
2021/04/02 11:41:12;;;;;;;2.17;1.77;;;;;;;10.08;49.02;100678.95;1715081;81;25810;-76
2021/04/02 11:43:39;;;;;;;1.62;1.10;;;;;;;10.14;48.22;100678.75;1740306;81;25839;-76
2021/04/02 11:46:07;;;;;;;2.02;1.57;;;;;;;10.21;46.82;100666.31;1670432;81;26423;-75
2021/04/02 11:48:34;;;;;;;3.52;3.22;;;;;;;10.25;47.52;100672.12;1752817;81;25769;-75
2021/04/02 11:51:01;;;;;;;3.30;2.55;;;;;;;10.28;47.29;100669.09;1716462;81;27309;-75
2021/04/02 11:53:30;;;;;;;3.10;2.12;;;;;;;10.27;48.03;100672.77;1747789;81;25863;-75
2021/04/02 11:55:57;;;;;;;2.40;1.57;;;;;;;10.29;46.22;100668.89;1699926;81;25874;-76